createdAt,value
2023-03-05T02:33:17.780Z,23.60
2023-03-05T02:35:46.490Z,26.67
2023-03-05T02:38:17.045Z,25.17
2023-03-05T02:40:44.974Z,33.08
2023-03-05T02:43:13.516Z,34.75
2023-03-05T02:45:41.168Z,36.78
2023-03-05T02:48:08.839Z,36.50
2023-03-05T02:50:37.046Z,36.20
2023-03-05T02:53:04.758Z,36.72
2023-03-05T02:55:32.456Z,36.97
2023-03-05T02:58:00.866Z,36.65
2023-03-05T03:00:28.632Z,38.70
2023-03-05T03:02:56.486Z,39.45
2023-03-05T03:05:24.147Z,41.53
2023-03-05T03:07:52.287Z,39.72
2023-03-05T03:10:19.921Z,38.95
2023-03-05T03:12:47.296Z,40.58
2023-03-05T03:15:18.650Z,39.20
2023-03-05T03:17:46.472Z,40.10
2023-03-05T03:20:17.191Z,41.03
2023-03-05T03:22:46.029Z,39.33
2023-03-05T03:25:16.196Z,39.60
2023-03-05T03:27:43.798Z,40.63
2023-03-05T03:30:12.887Z,39.50
2023-03-05T03:32:40.351Z,40.40
2023-03-05T03:35:08.967Z,41.90
2023-03-05T03:37:36.611Z,42.45
2023-03-05T03:40:06.018Z,41.38
2023-03-05T03:42:33.840Z,45.05
2023-03-05T03:45:02.532Z,45.10
2023-03-05T03:47:31.269Z,45.28
2023-03-05T03:50:01.500Z,45.13
2023-03-05T03:52:29.145Z,46.08
2023-03-05T03:55:02.131Z,47.47
2023-03-05T03:57:30.675Z,46.58
2023-03-05T03:59:58.168Z,48.22
2023-03-05T04:02:26.603Z,47.05
2023-03-05T04:04:54.084Z,47.30
2023-03-05T04:07:21.567Z,45.97
2023-03-05T04:09:49.308Z,46.10
2023-03-05T04:12:18.417Z,47.45
2023-03-05T04:14:47.521Z,47.95
2023-03-05T04:17:16.298Z,49.73
2023-03-05T04:19:45.087Z,48.50
2023-03-05T04:22:14.256Z,47.75
2023-03-05T04:24:42.209Z,49.23
2023-03-05T04:27:09.991Z,49.33
2023-03-05T04:29:37.557Z,47.95
2023-03-05T04:32:05.561Z,47.88
2023-03-05T04:34:33.468Z,48.55
2023-03-05T04:37:01.295Z,49.08
2023-03-05T04:39:28.979Z,47.40
2023-03-05T04:41:56.592Z,44.57
2023-03-05T04:44:26.095Z,42.10
2023-03-05T04:46:53.889Z,40.08
2023-03-05T04:49:21.446Z,37.43
2023-03-05T04:51:49.719Z,38.17
2023-03-05T04:54:17.193Z,35.33
2023-03-05T04:56:44.800Z,33.85
2023-03-05T04:59:12.219Z,32.78
2023-03-05T05:01:39.767Z,31.55
2023-03-05T05:04:07.556Z,32.03
2023-03-05T05:06:35.167Z,31.17
2023-03-05T05:09:02.703Z,29.90
2023-03-05T05:11:30.156Z,29.15
2023-03-05T05:13:57.521Z,29.83
2023-03-05T05:16:25.052Z,29.42
2023-03-05T05:18:52.525Z,29.65
2023-03-05T05:21:20.540Z,28.27
2023-03-05T05:23:48.049Z,28.33
2023-03-05T05:26:15.587Z,28.45
2023-03-05T05:28:44.043Z,26.85
2023-03-05T05:31:14.245Z,27.92
2023-03-05T05:33:42.664Z,29.67
2023-03-05T05:36:13.817Z,29.03
2023-03-05T05:38:43.047Z,30.75
2023-03-05T05:41:15.820Z,32.83
2023-03-05T05:43:43.665Z,32.35
2023-03-05T05:46:17.071Z,35.97
2023-03-05T05:48:45.161Z,37.25
2023-03-05T05:51:16.032Z,37.28
2023-03-05T05:53:44.320Z,40.75
2023-03-05T05:56:13.081Z,41.17
2023-03-05T05:58:42.487Z,41.88
2023-03-05T06:01:20.595Z,42.70
2023-03-05T06:03:48.284Z,43.22
2023-03-05T06:06:18.780Z,43.70
2023-03-05T06:08:46.716Z,45.08
2023-03-05T06:11:16.304Z,44.13
2023-03-05T06:13:45.126Z,43.88
2023-03-05T06:16:16.050Z,46.15
2023-03-05T06:18:44.061Z,43.90
2023-03-05T06:21:14.464Z,44.33
2023-03-05T06:23:43.340Z,45.33
2023-03-05T06:26:13.024Z,45.17
2023-03-05T06:28:41.361Z,44.47
2023-03-05T06:31:15.021Z,45.28
2023-03-05T06:33:43.312Z,45.08
2023-03-05T06:36:14.064Z,45.70
2023-03-05T06:38:42.260Z,45.22
2023-03-05T06:41:12.937Z,45.27
2023-03-05T06:43:42.796Z,42.60
2023-03-05T06:46:14.844Z,42.35
2023-03-05T06:48:43.721Z,42.67
2023-03-05T06:51:15.568Z,40.50
2023-03-05T06:53:43.971Z,40.17
2023-03-05T06:56:14.089Z,38.45
2023-03-05T06:58:41.725Z,38.13
2023-03-05T07:01:09.763Z,38.30
2023-03-05T07:03:37.619Z,38.17
2023-03-05T07:06:07.771Z,37.42
2023-03-05T07:08:35.768Z,40.37
2023-03-05T07:11:04.433Z,40.90
2023-03-05T07:13:32.167Z,40.58
2023-03-05T07:15:59.897Z,41.17
2023-03-05T07:18:27.666Z,41.83
2023-03-05T07:20:56.075Z,42.15
2023-03-05T07:23:24.473Z,40.65
2023-03-05T07:25:52.062Z,42.10
2023-03-05T07:28:19.612Z,41.17
2023-03-05T07:30:58.518Z,42.15
2023-03-05T07:33:26.803Z,41.47
2023-03-05T07:35:55.403Z,40.65
2023-03-05T07:38:23.104Z,42.80
2023-03-05T07:40:51.228Z,42.88
2023-03-05T07:43:19.279Z,44.50
2023-03-05T07:45:48.326Z,45.05
2023-03-05T07:48:18.410Z,43.20
2023-03-05T07:50:46.017Z,44.23
2023-03-05T07:53:15.238Z,45.65
2023-03-05T07:55:45.124Z,44.28
2023-03-05T07:58:13.854Z,45.03
2023-03-05T08:00:41.500Z,43.40
2023-03-05T08:03:09.279Z,45.08
2023-03-05T08:05:40.113Z,44.67
2023-03-05T08:08:08.719Z,44.22
2023-03-05T08:10:37.386Z,45.85
2023-03-05T08:13:05.985Z,44.88
2023-03-05T08:15:33.904Z,44.80
2023-03-05T08:18:01.415Z,45.40
2023-03-05T08:20:29.097Z,46.55
2023-03-05T08:22:56.571Z,45.35
2023-03-05T08:25:24.116Z,45.78
2023-03-05T08:27:51.644Z,46.83
2023-03-05T08:30:22.366Z,44.60
2023-03-05T08:32:49.974Z,44.97
2023-03-05T08:35:17.521Z,45.03
2023-03-05T08:37:45.417Z,44.65
2023-03-05T08:40:13.378Z,45.90
2023-03-05T08:42:40.946Z,45.95
2023-03-05T08:45:09.329Z,45.15
2023-03-05T08:47:37.088Z,43.53
2023-03-05T08:50:04.880Z,43.67
2023-03-05T08:52:32.360Z,43.80
2023-03-05T08:54:59.891Z,42.10
2023-03-05T08:57:27.424Z,39.83
2023-03-05T08:59:54.868Z,32.78
2023-03-05T09:02:23.141Z,33.95
2023-03-05T09:04:50.600Z,34.22
2023-03-05T09:07:18.173Z,33.40
2023-03-05T09:09:45.869Z,33.05
2023-03-05T09:12:13.623Z,31.70
2023-03-05T09:14:42.048Z,34.30
2023-03-05T10:41:45.698Z,30.13
2023-03-05T10:44:18.443Z,28.45
2023-03-05T17:55:13.931Z,40.38
2023-03-05T17:57:43.113Z,45.50
2023-03-05T18:00:20.284Z,44.05
2023-03-05T18:02:49.405Z,44.72
2023-03-05T18:05:17.937Z,43.90
2023-03-05T18:07:45.648Z,45.72
2023-03-05T18:10:14.530Z,46.72
2023-03-05T18:12:43.519Z,47.08
2023-03-05T18:15:13.248Z,48.03
2023-03-05T18:17:42.399Z,47.38
2023-03-05T18:20:22.949Z,43.17
2023-03-05T18:22:50.492Z,44.42
2023-03-05T18:25:18.205Z,45.92
2023-03-05T18:27:45.689Z,43.92
2023-03-05T18:30:14.156Z,45.53
2023-03-05T18:32:41.645Z,48.13
2023-03-05T18:35:10.124Z,46.47
2023-03-05T18:37:39.871Z,44.90
